sensor_id;sensor_type;location;lat;lon;timestamp;P1;durP1;ratioP1;P2;durP2;ratioP2
7247;SDS011;3665;51.034;13.642;2023-04-03T00:02:55;1.77;;;1.10;;
7247;SDS011;3665;51.034;13.642;2023-04-03T00:07:39;3.07;;;1.33;;
7247;SDS011;3665;51.034;13.642;2023-04-03T00:12:25;2.50;;;1.33;;
7247;SDS011;3665;51.034;13.642;2023-04-03T00:17:18;3.70;;;1.73;;
7247;SDS011;3665;51.034;13.642;2023-04-03T00:22:04;4.40;;;1.50;;
7247;SDS011;3665;51.034;13.642;2023-04-03T00:26:49;3.60;;;1.20;;
7247;SDS011;3665;51.034;13.642;2023-04-03T00:31:43;4.70;;;1.20;;
7247;SDS011;3665;51.034;13.642;2023-04-03T00:36:30;3.17;;;1.40;;
7247;SDS011;3665;51.034;13.642;2023-04-03T00:41:14;2.37;;;1.57;;
7247;SDS011;3665;51.034;13.642;2023-04-03T00:46:12;3.27;;;1.23;;
7247;SDS011;3665;51.034;13.642;2023-04-03T00:50:55;3.80;;;1.60;;
7247;SDS011;3665;51.034;13.642;2023-04-03T00:55:44;3.17;;;1.40;;
7247;SDS011;3665;51.034;13.642;2023-04-03T01:00:32;2.60;;;1.40;;
7247;SDS011;3665;51.034;13.642;2023-04-03T01:05:19;4.93;;;1.60;;
7247;SDS011;3665;51.034;13.642;2023-04-03T01:10:11;2.60;;;1.53;;
7247;SDS011;3665;51.034;13.642;2023-04-03T01:14:59;2.67;;;1.67;;
7247;SDS011;3665;51.034;13.642;2023-04-03T01:19:44;2.77;;;1.33;;
7247;SDS011;3665;51.034;13.642;2023-04-03T01:24:47;3.27;;;1.40;;
7247;SDS011;3665;51.034;13.642;2023-04-03T01:29:37;4.27;;;1.50;;
7247;SDS011;3665;51.034;13.642;2023-04-03T01:34:27;3.23;;;1.40;;
7247;SDS011;3665;51.034;13.642;2023-04-03T01:39:13;1.90;;;1.37;;
7247;SDS011;3665;51.034;13.642;2023-04-03T01:43:59;3.13;;;1.37;;
7247;SDS011;3665;51.034;13.642;2023-04-03T01:48:48;3.87;;;1.47;;
7247;SDS011;3665;51.034;13.642;2023-04-03T01:53:36;3.77;;;1.60;;
7247;SDS011;3665;51.034;13.642;2023-04-03T01:58:23;2.67;;;1.23;;
7247;SDS011;3665;51.034;13.642;2023-04-03T02:03:10;2.27;;;1.50;;
7247;SDS011;3665;51.034;13.642;2023-04-03T02:08:03;2.87;;;1.80;;
7247;SDS011;3665;51.034;13.642;2023-04-03T02:12:50;4.80;;;1.77;;
7247;SDS011;3665;51.034;13.642;2023-04-03T02:17:36;3.77;;;1.30;;
7247;SDS011;3665;51.034;13.642;2023-04-03T02:22:25;4.37;;;1.73;;
7247;SDS011;3665;51.034;13.642;2023-04-03T02:27:12;4.90;;;1.40;;
7247;SDS011;3665;51.034;13.642;2023-04-03T02:32:02;3.33;;;1.30;;
7247;SDS011;3665;51.034;13.642;2023-04-03T02:36:47;3.33;;;1.27;;
7247;SDS011;3665;51.034;13.642;2023-04-03T02:41:38;4.70;;;1.50;;
7247;SDS011;3665;51.034;13.642;2023-04-03T02:46:42;6.03;;;2.40;;
7247;SDS011;3665;51.034;13.642;2023-04-03T02:51:30;6.10;;;1.70;;
7247;SDS011;3665;51.034;13.642;2023-04-03T02:56:13;5.00;;;1.97;;
7247;SDS011;3665;51.034;13.642;2023-04-03T03:01:02;1.97;;;1.43;;
7247;SDS011;3665;51.034;13.642;2023-04-03T03:05:59;2.40;;;1.70;;
7247;SDS011;3665;51.034;13.642;2023-04-03T03:10:58;3.33;;;1.63;;
7247;SDS011;3665;51.034;13.642;2023-04-03T03:15:43;3.23;;;1.67;;
7247;SDS011;3665;51.034;13.642;2023-04-03T03:20:36;5.00;;;1.80;;
7247;SDS011;3665;51.034;13.642;2023-04-03T03:25:20;3.77;;;1.50;;
7247;SDS011;3665;51.034;13.642;2023-04-03T03:30:08;3.63;;;1.40;;
7247;SDS011;3665;51.034;13.642;2023-04-03T03:34:58;3.93;;;1.80;;
7247;SDS011;3665;51.034;13.642;2023-04-03T03:39:45;3.60;;;1.40;;
7247;SDS011;3665;51.034;13.642;2023-04-03T03:44:32;2.10;;;1.40;;
7247;SDS011;3665;51.034;13.642;2023-04-03T03:49:20;3.23;;;1.63;;
7247;SDS011;3665;51.034;13.642;2023-04-03T03:54:07;4.47;;;1.90;;
7247;SDS011;3665;51.034;13.642;2023-04-03T03:58:56;7.77;;;1.70;;
7247;SDS011;3665;51.034;13.642;2023-04-03T04:03:43;3.07;;;1.60;;
7247;SDS011;3665;51.034;13.642;2023-04-03T04:08:33;3.30;;;1.70;;
7247;SDS011;3665;51.034;13.642;2023-04-03T04:13:19;3.70;;;1.50;;
7247;SDS011;3665;51.034;13.642;2023-04-03T04:18:07;4.87;;;1.80;;
7247;SDS011;3665;51.034;13.642;2023-04-03T04:22:55;4.47;;;1.70;;
7247;SDS011;3665;51.034;13.642;2023-04-03T04:27:45;3.50;;;1.77;;
7247;SDS011;3665;51.034;13.642;2023-04-03T04:32:32;5.13;;;1.80;;
7247;SDS011;3665;51.034;13.642;2023-04-03T04:37:18;3.13;;;1.50;;
7247;SDS011;3665;51.034;13.642;2023-04-03T04:42:11;4.07;;;1.77;;
7247;SDS011;3665;51.034;13.642;2023-04-03T04:47:14;4.37;;;1.77;;
7247;SDS011;3665;51.034;13.642;2023-04-03T04:51:58;4.90;;;2.03;;
7247;SDS011;3665;51.034;13.642;2023-04-03T04:56:47;5.37;;;2.03;;
7247;SDS011;3665;51.034;13.642;2023-04-03T05:01:37;4.00;;;1.67;;
7247;SDS011;3665;51.034;13.642;2023-04-03T05:06:27;6.90;;;2.03;;
7247;SDS011;3665;51.034;13.642;2023-04-03T05:11:12;3.57;;;1.97;;
7247;SDS011;3665;51.034;13.642;2023-04-03T05:16:00;5.70;;;2.10;;
7247;SDS011;3665;51.034;13.642;2023-04-03T05:20:49;4.13;;;1.73;;
7247;SDS011;3665;51.034;13.642;2023-04-03T05:25:36;3.10;;;1.90;;
7247;SDS011;3665;51.034;13.642;2023-04-03T05:30:24;3.13;;;1.80;;
7247;SDS011;3665;51.034;13.642;2023-04-03T05:35:11;4.77;;;1.80;;
7247;SDS011;3665;51.034;13.642;2023-04-03T05:40:02;4.43;;;2.20;;
7247;SDS011;3665;51.034;13.642;2023-04-03T05:44:48;6.23;;;2.40;;
7247;SDS011;3665;51.034;13.642;2023-04-03T05:49:35;4.70;;;2.37;;
7247;SDS011;3665;51.034;13.642;2023-04-03T05:54:24;6.03;;;1.90;;
7247;SDS011;3665;51.034;13.642;2023-04-03T05:59:21;3.77;;;2.00;;
7247;SDS011;3665;51.034;13.642;2023-04-03T06:04:19;7.13;;;2.10;;
7247;SDS011;3665;51.034;13.642;2023-04-03T06:09:03;5.23;;;1.80;;
7247;SDS011;3665;51.034;13.642;2023-04-03T06:13:46;5.17;;;1.80;;
7247;SDS011;3665;51.034;13.642;2023-04-03T06:18:39;3.73;;;1.90;;
7247;SDS011;3665;51.034;13.642;2023-04-03T06:23:27;3.83;;;1.90;;
7247;SDS011;3665;51.034;13.642;2023-04-03T06:28:17;4.33;;;1.70;;
7247;SDS011;3665;51.034;13.642;2023-04-03T06:33:04;3.60;;;1.70;;
7247;SDS011;3665;51.034;13.642;2023-04-03T06:37:50;4.63;;;1.80;;
7247;SDS011;3665;51.034;13.642;2023-04-03T06:47:42;5.43;;;2.00;;
7247;SDS011;3665;51.034;13.642;2023-04-03T06:52:32;2.67;;;1.77;;
7247;SDS011;3665;51.034;13.642;2023-04-03T06:57:19;4.97;;;1.90;;
7247;SDS011;3665;51.034;13.642;2023-04-03T07:02:13;5.70;;;2.03;;
7247;SDS011;3665;51.034;13.642;2023-04-03T07:06:57;7.93;;;2.47;;
7247;SDS011;3665;51.034;13.642;2023-04-03T07:11:43;4.40;;;1.73;;
7247;SDS011;3665;51.034;13.642;2023-04-03T07:16:33;3.40;;;2.27;;
7247;SDS011;3665;51.034;13.642;2023-04-03T07:21:22;5.33;;;1.93;;
7247;SDS011;3665;51.034;13.642;2023-04-03T07:26:07;5.30;;;2.13;;
7247;SDS011;3665;51.034;13.642;2023-04-03T07:30:59;3.83;;;1.70;;
7247;SDS011;3665;51.034;13.642;2023-04-03T07:35:44;5.10;;;2.00;;
7247;SDS011;3665;51.034;13.642;2023-04-03T07:40:32;2.63;;;2.20;;
7247;SDS011;3665;51.034;13.642;2023-04-03T07:45:21;4.83;;;1.93;;
7247;SDS011;3665;51.034;13.642;2023-04-03T07:50:06;3.50;;;2.10;;
7247;SDS011;3665;51.034;13.642;2023-04-03T07:54:54;2.90;;;1.97;;
7247;SDS011;3665;51.034;13.642;2023-04-03T07:59:43;4.63;;;2.20;;
7247;SDS011;3665;51.034;13.642;2023-04-03T08:04:36;3.30;;;1.70;;
7247;SDS011;3665;51.034;13.642;2023-04-03T08:09:20;4.47;;;1.87;;
7247;SDS011;3665;51.034;13.642;2023-04-03T08:14:09;4.67;;;1.93;;
7247;SDS011;3665;51.034;13.642;2023-04-03T08:18:59;4.40;;;2.27;;
7247;SDS011;3665;51.034;13.642;2023-04-03T08:23:44;4.13;;;2.30;;
7247;SDS011;3665;51.034;13.642;2023-04-03T08:28:32;4.97;;;1.90;;
7247;SDS011;3665;51.034;13.642;2023-04-03T08:33:22;4.40;;;1.93;;
7247;SDS011;3665;51.034;13.642;2023-04-03T08:38:09;4.50;;;2.00;;
7247;SDS011;3665;51.034;13.642;2023-04-03T08:42:59;2.50;;;1.80;;
7247;SDS011;3665;51.034;13.642;2023-04-03T08:48:18;4.10;;;2.13;;
7247;SDS011;3665;51.034;13.642;2023-04-03T08:53:04;5.80;;;1.90;;
7247;SDS011;3665;51.034;13.642;2023-04-03T08:58:09;4.10;;;2.30;;
7247;SDS011;3665;51.034;13.642;2023-04-03T09:02:57;4.60;;;1.80;;
7247;SDS011;3665;51.034;13.642;2023-04-03T09:07:45;3.27;;;2.00;;
7247;SDS011;3665;51.034;13.642;2023-04-03T09:12:34;4.60;;;1.80;;
7247;SDS011;3665;51.034;13.642;2023-04-03T09:17:22;4.90;;;1.50;;
7247;SDS011;3665;51.034;13.642;2023-04-03T09:22:17;3.30;;;2.33;;
7247;SDS011;3665;51.034;13.642;2023-04-03T09:27:19;4.00;;;1.63;;
7247;SDS011;3665;51.034;13.642;2023-04-03T09:32:20;3.33;;;1.77;;
7247;SDS011;3665;51.034;13.642;2023-04-03T09:37:12;1.83;;;1.40;;
7247;SDS011;3665;51.034;13.642;2023-04-03T09:42:23;4.87;;;1.40;;
7247;SDS011;3665;51.034;13.642;2023-04-03T09:47:17;2.63;;;1.47;;
7247;SDS011;3665;51.034;13.642;2023-04-03T09:52:10;3.80;;;1.53;;
7247;SDS011;3665;51.034;13.642;2023-04-03T09:57:06;2.20;;;1.63;;
7247;SDS011;3665;51.034;13.642;2023-04-03T10:01:58;2.23;;;1.10;;
7247;SDS011;3665;51.034;13.642;2023-04-03T10:06:43;3.03;;;1.30;;
7247;SDS011;3665;51.034;13.642;2023-04-03T10:11:28;2.57;;;1.50;;
7247;SDS011;3665;51.034;13.642;2023-04-03T10:16:16;2.30;;;1.30;;
7247;SDS011;3665;51.034;13.642;2023-04-03T10:21:04;2.93;;;1.00;;
7247;SDS011;3665;51.034;13.642;2023-04-03T10:26:04;2.53;;;0.87;;
7247;SDS011;3665;51.034;13.642;2023-04-03T10:30:56;1.97;;;1.00;;
7247;SDS011;3665;51.034;13.642;2023-04-03T10:36:03;3.53;;;1.40;;
7247;SDS011;3665;51.034;13.642;2023-04-03T10:40:59;1.37;;;1.03;;
7247;SDS011;3665;51.034;13.642;2023-04-03T10:45:55;3.77;;;1.07;;
7247;SDS011;3665;51.034;13.642;2023-04-03T10:50:50;2.50;;;1.07;;
7247;SDS011;3665;51.034;13.642;2023-04-03T10:55:45;3.00;;;1.10;;
7247;SDS011;3665;51.034;13.642;2023-04-03T11:00:37;1.50;;;0.93;;
7247;SDS011;3665;51.034;13.642;2023-04-03T11:05:37;1.67;;;1.00;;
7247;SDS011;3665;51.034;13.642;2023-04-03T11:10:27;2.67;;;0.80;;
7247;SDS011;3665;51.034;13.642;2023-04-03T11:15:22;1.33;;;1.07;;
7247;SDS011;3665;51.034;13.642;2023-04-03T11:20:14;2.30;;;0.90;;
7247;SDS011;3665;51.034;13.642;2023-04-03T11:25:04;4.70;;;1.00;;
7247;SDS011;3665;51.034;13.642;2023-04-03T11:30:09;1.10;;;0.70;;
7247;SDS011;3665;51.034;13.642;2023-04-03T11:35:11;3.83;;;1.00;;
7247;SDS011;3665;51.034;13.642;2023-04-03T11:39:58;1.67;;;0.73;;
7247;SDS011;3665;51.034;13.642;2023-04-03T11:44:50;1.97;;;0.83;;
7247;SDS011;3665;51.034;13.642;2023-04-03T11:49:52;2.10;;;0.70;;
7247;SDS011;3665;51.034;13.642;2023-04-03T11:54:47;1.30;;;0.80;;
7247;SDS011;3665;51.034;13.642;2023-04-03T11:59:36;3.10;;;1.00;;
7247;SDS011;3665;51.034;13.642;2023-04-03T12:04:29;1.37;;;0.80;;
7247;SDS011;3665;51.034;13.642;2023-04-03T12:09:22;1.60;;;1.20;;
7247;SDS011;3665;51.034;13.642;2023-04-03T12:14:13;1.93;;;1.00;;
7247;SDS011;3665;51.034;13.642;2023-04-03T12:18:59;1.73;;;1.00;;
7247;SDS011;3665;51.034;13.642;2023-04-03T12:24:01;3.23;;;1.10;;
7247;SDS011;3665;51.034;13.642;2023-04-03T12:28:48;2.90;;;1.83;;
7247;SDS011;3665;51.034;13.642;2023-04-03T12:33:38;2.60;;;1.40;;
7247;SDS011;3665;51.034;13.642;2023-04-03T12:39:00;3.00;;;0.90;;
7247;SDS011;3665;51.034;13.642;2023-04-03T12:49:24;1.17;;;0.93;;
7247;SDS011;3665;51.034;13.642;2023-04-03T12:54:23;1.70;;;1.30;;
7247;SDS011;3665;51.034;13.642;2023-04-03T12:59:14;2.10;;;1.47;;
7247;SDS011;3665;51.034;13.642;2023-04-03T13:03:59;1.60;;;0.93;;
7247;SDS011;3665;51.034;13.642;2023-04-03T13:08:49;2.60;;;1.10;;
7247;SDS011;3665;51.034;13.642;2023-04-03T13:13:36;3.40;;;1.37;;
7247;SDS011;3665;51.034;13.642;2023-04-03T13:18:25;3.63;;;1.93;;
7247;SDS011;3665;51.034;13.642;2023-04-03T13:23:13;1.20;;;1.10;;
7247;SDS011;3665;51.034;13.642;2023-04-03T13:28:02;3.63;;;1.57;;
7247;SDS011;3665;51.034;13.642;2023-04-03T13:32:59;2.23;;;1.20;;
7247;SDS011;3665;51.034;13.642;2023-04-03T13:37:53;3.27;;;1.33;;
7247;SDS011;3665;51.034;13.642;2023-04-03T13:42:42;3.27;;;1.30;;
7247;SDS011;3665;51.034;13.642;2023-04-03T13:47:36;3.40;;;1.17;;
7247;SDS011;3665;51.034;13.642;2023-04-03T13:52:26;2.00;;;1.00;;
7247;SDS011;3665;51.034;13.642;2023-04-03T13:57:21;2.50;;;1.30;;
7247;SDS011;3665;51.034;13.642;2023-04-03T14:02:16;3.00;;;1.00;;
7247;SDS011;3665;51.034;13.642;2023-04-03T14:07:14;1.63;;;1.17;;
7247;SDS011;3665;51.034;13.642;2023-04-03T14:12:00;3.23;;;1.57;;
7247;SDS011;3665;51.034;13.642;2023-04-03T14:16:56;2.07;;;1.00;;
7247;SDS011;3665;51.034;13.642;2023-04-03T14:21:54;2.00;;;1.17;;
7247;SDS011;3665;51.034;13.642;2023-04-03T14:26:39;2.27;;;1.57;;
7247;SDS011;3665;51.034;13.642;2023-04-03T14:31:26;1.97;;;1.37;;
7247;SDS011;3665;51.034;13.642;2023-04-03T14:36:17;3.03;;;1.67;;
7247;SDS011;3665;51.034;13.642;2023-04-03T14:41:03;1.67;;;1.37;;
7247;SDS011;3665;51.034;13.642;2023-04-03T14:46:01;4.40;;;1.23;;
7247;SDS011;3665;51.034;13.642;2023-04-03T14:50:56;2.77;;;1.10;;
7247;SDS011;3665;51.034;13.642;2023-04-03T14:55:49;3.00;;;1.40;;
7247;SDS011;3665;51.034;13.642;2023-04-03T15:00:33;1.40;;;1.20;;
7247;SDS011;3665;51.034;13.642;2023-04-03T15:05:20;2.00;;;1.27;;
7247;SDS011;3665;51.034;13.642;2023-04-03T15:10:14;4.30;;;1.80;;
7247;SDS011;3665;51.034;13.642;2023-04-03T15:15:04;1.83;;;1.10;;
7247;SDS011;3665;51.034;13.642;2023-04-03T15:19:54;3.37;;;0.93;;
7247;SDS011;3665;51.034;13.642;2023-04-03T15:24:48;1.83;;;1.10;;
7247;SDS011;3665;51.034;13.642;2023-04-03T15:29:38;1.37;;;1.27;;
7247;SDS011;3665;51.034;13.642;2023-04-03T15:34:23;3.10;;;1.30;;
7247;SDS011;3665;51.034;13.642;2023-04-03T15:39:07;4.30;;;1.37;;
7247;SDS011;3665;51.034;13.642;2023-04-03T15:43:59;3.30;;;1.20;;
7247;SDS011;3665;51.034;13.642;2023-04-03T15:48:49;1.90;;;1.20;;
7247;SDS011;3665;51.034;13.642;2023-04-03T15:53:38;2.53;;;1.33;;
7247;SDS011;3665;51.034;13.642;2023-04-03T15:58:23;2.00;;;1.10;;
7247;SDS011;3665;51.034;13.642;2023-04-03T16:03:12;1.60;;;1.27;;
7247;SDS011;3665;51.034;13.642;2023-04-03T16:07:59;2.77;;;1.20;;
7247;SDS011;3665;51.034;13.642;2023-04-03T16:12:43;2.90;;;1.10;;
7247;SDS011;3665;51.034;13.642;2023-04-03T16:17:29;3.83;;;1.27;;
7247;SDS011;3665;51.034;13.642;2023-04-03T16:22:27;1.67;;;1.10;;
7247;SDS011;3665;51.034;13.642;2023-04-03T16:27:12;2.63;;;1.33;;
7247;SDS011;3665;51.034;13.642;2023-04-03T16:31:55;3.13;;;1.60;;
7247;SDS011;3665;51.034;13.642;2023-04-03T16:36:41;1.20;;;1.10;;
7247;SDS011;3665;51.034;13.642;2023-04-03T16:41:40;1.63;;;1.40;;
7247;SDS011;3665;51.034;13.642;2023-04-03T16:46:23;1.10;;;1.00;;
7247;SDS011;3665;51.034;13.642;2023-04-03T16:51:07;2.77;;;1.00;;
7247;SDS011;3665;51.034;13.642;2023-04-03T16:56:02;2.87;;;1.30;;
7247;SDS011;3665;51.034;13.642;2023-04-03T17:00:47;1.23;;;1.13;;
7247;SDS011;3665;51.034;13.642;2023-04-03T17:05:37;2.43;;;1.20;;
7247;SDS011;3665;51.034;13.642;2023-04-03T17:10:24;1.10;;;1.00;;
7247;SDS011;3665;51.034;13.642;2023-04-03T17:15:14;1.90;;;1.20;;
7247;SDS011;3665;51.034;13.642;2023-04-03T17:20:00;1.70;;;1.20;;
7247;SDS011;3665;51.034;13.642;2023-04-03T17:24:45;3.40;;;1.20;;
7247;SDS011;3665;51.034;13.642;2023-04-03T17:29:32;2.27;;;1.10;;
7247;SDS011;3665;51.034;13.642;2023-04-03T17:34:23;2.97;;;1.60;;
7247;SDS011;3665;51.034;13.642;2023-04-03T17:39:16;1.60;;;1.30;;
7247;SDS011;3665;51.034;13.642;2023-04-03T17:43:59;1.17;;;1.03;;
7247;SDS011;3665;51.034;13.642;2023-04-03T17:48:49;3.03;;;1.70;;
7247;SDS011;3665;51.034;13.642;2023-04-03T17:53:35;1.67;;;1.53;;
7247;SDS011;3665;51.034;13.642;2023-04-03T17:58:28;3.50;;;2.10;;
7247;SDS011;3665;51.034;13.642;2023-04-03T18:03:12;1.63;;;1.40;;
7247;SDS011;3665;51.034;13.642;2023-04-03T18:07:58;4.60;;;2.40;;
7247;SDS011;3665;51.034;13.642;2023-04-03T18:12:51;3.27;;;2.33;;
7247;SDS011;3665;51.034;13.642;2023-04-03T18:23:20;3.97;;;1.77;;
7247;SDS011;3665;51.034;13.642;2023-04-03T18:33:22;2.13;;;1.70;;
7247;SDS011;3665;51.034;13.642;2023-04-03T18:38:08;4.93;;;2.43;;
7247;SDS011;3665;51.034;13.642;2023-04-03T18:42:57;3.47;;;1.70;;
7247;SDS011;3665;51.034;13.642;2023-04-03T18:47:44;2.63;;;1.53;;
7247;SDS011;3665;51.034;13.642;2023-04-03T18:52:32;2.17;;;1.40;;
7247;SDS011;3665;51.034;13.642;2023-04-03T18:57:25;3.07;;;1.47;;
7247;SDS011;3665;51.034;13.642;2023-04-03T19:02:10;2.83;;;1.27;;
7247;SDS011;3665;51.034;13.642;2023-04-03T19:06:56;1.70;;;1.30;;
7247;SDS011;3665;51.034;13.642;2023-04-03T19:11:44;1.97;;;1.70;;
7247;SDS011;3665;51.034;13.642;2023-04-03T19:16:37;5.00;;;2.10;;
7247;SDS011;3665;51.034;13.642;2023-04-03T19:21:23;4.27;;;1.77;;
7247;SDS011;3665;51.034;13.642;2023-04-03T19:26:10;4.27;;;1.30;;
7247;SDS011;3665;51.034;13.642;2023-04-03T19:30:56;3.17;;;1.70;;
7247;SDS011;3665;51.034;13.642;2023-04-03T19:35:44;2.43;;;1.23;;
7247;SDS011;3665;51.034;13.642;2023-04-03T19:40:37;3.33;;;1.70;;
7247;SDS011;3665;51.034;13.642;2023-04-03T19:45:52;2.20;;;1.70;;
7247;SDS011;3665;51.034;13.642;2023-04-03T19:50:43;3.03;;;1.90;;
7247;SDS011;3665;51.034;13.642;2023-04-03T19:55:30;4.97;;;2.30;;
7247;SDS011;3665;51.034;13.642;2023-04-03T20:00:19;4.07;;;1.80;;
7247;SDS011;3665;51.034;13.642;2023-04-03T20:05:05;3.60;;;1.90;;
7247;SDS011;3665;51.034;13.642;2023-04-03T20:09:52;4.13;;;1.90;;
7247;SDS011;3665;51.034;13.642;2023-04-03T20:14:42;3.07;;;1.63;;
7247;SDS011;3665;51.034;13.642;2023-04-03T20:19:34;2.97;;;1.77;;
7247;SDS011;3665;51.034;13.642;2023-04-03T20:24:33;1.73;;;1.40;;
7247;SDS011;3665;51.034;13.642;2023-04-03T20:29:20;1.97;;;1.60;;
7247;SDS011;3665;51.034;13.642;2023-04-03T20:34:08;3.87;;;2.23;;
7247;SDS011;3665;51.034;13.642;2023-04-03T20:44:50;3.00;;;1.83;;
7247;SDS011;3665;51.034;13.642;2023-04-03T20:55:15;2.40;;;1.67;;
7247;SDS011;3665;51.034;13.642;2023-04-03T21:00:02;4.30;;;1.70;;
7247;SDS011;3665;51.034;13.642;2023-04-03T21:04:49;4.77;;;1.90;;
7247;SDS011;3665;51.034;13.642;2023-04-03T21:25:38;2.80;;;2.23;;
7247;SDS011;3665;51.034;13.642;2023-04-03T21:30:24;4.23;;;2.30;;
7247;SDS011;3665;51.034;13.642;2023-04-03T21:35:11;4.37;;;2.43;;
7247;SDS011;3665;51.034;13.642;2023-04-03T21:40:02;3.23;;;2.30;;
7247;SDS011;3665;51.034;13.642;2023-04-03T21:44:48;3.90;;;2.07;;
7247;SDS011;3665;51.034;13.642;2023-04-03T21:49:36;3.30;;;2.30;;
7247;SDS011;3665;51.034;13.642;2023-04-03T21:54:26;2.73;;;1.90;;
7247;SDS011;3665;51.034;13.642;2023-04-03T21:59:15;6.57;;;2.47;;
7247;SDS011;3665;51.034;13.642;2023-04-03T22:04:00;3.60;;;1.90;;
7247;SDS011;3665;51.034;13.642;2023-04-03T22:08:55;2.83;;;2.40;;
7247;SDS011;3665;51.034;13.642;2023-04-03T22:13:54;4.93;;;2.57;;
7247;SDS011;3665;51.034;13.642;2023-04-03T22:18:43;6.17;;;2.20;;
7247;SDS011;3665;51.034;13.642;2023-04-03T22:23:28;3.17;;;2.07;;
7247;SDS011;3665;51.034;13.642;2023-04-03T22:28:17;5.33;;;2.77;;
7247;SDS011;3665;51.034;13.642;2023-04-03T22:33:05;4.47;;;2.40;;
7247;SDS011;3665;51.034;13.642;2023-04-03T22:37:56;2.90;;;2.00;;
7247;SDS011;3665;51.034;13.642;2023-04-03T22:42:40;2.93;;;2.37;;
7247;SDS011;3665;51.034;13.642;2023-04-03T22:47:28;2.13;;;1.90;;
7247;SDS011;3665;51.034;13.642;2023-04-03T22:52:21;3.70;;;2.20;;
7247;SDS011;3665;51.034;13.642;2023-04-03T22:57:06;3.53;;;2.27;;
7247;SDS011;3665;51.034;13.642;2023-04-03T23:01:52;3.13;;;1.77;;
7247;SDS011;3665;51.034;13.642;2023-04-03T23:06:45;4.10;;;1.73;;
7247;SDS011;3665;51.034;13.642;2023-04-03T23:11:29;3.00;;;2.10;;
7247;SDS011;3665;51.034;13.642;2023-04-03T23:16:17;2.57;;;1.97;;
7247;SDS011;3665;51.034;13.642;2023-04-03T23:21:08;2.70;;;2.23;;
7247;SDS011;3665;51.034;13.642;2023-04-03T23:25:51;4.47;;;2.33;;
7247;SDS011;3665;51.034;13.642;2023-04-03T23:30:41;3.57;;;2.10;;
7247;SDS011;3665;51.034;13.642;2023-04-03T23:35:31;4.37;;;2.03;;
7247;SDS011;3665;51.034;13.642;2023-04-03T23:40:15;3.27;;;1.77;;
7247;SDS011;3665;51.034;13.642;2023-04-03T23:50:09;4.57;;;2.27;;
7247;SDS011;3665;51.034;13.642;2023-04-03T23:54:57;2.27;;;2.07;;
7247;SDS011;3665;51.034;13.642;2023-04-03T23:59:45;3.50;;;1.77;;
